ADDS METAR Data INFO
IDs: Format: Raw Decoded Include TAF

Data at: 1959 UTC 19 Oct 2017

METAR for:KORL (Orlando/Executive, FL, US)
Text:KORL 191953Z 07017G20KT 10SM CLR 30/19 A3005
Temperature: 30.0°C ( 86°F)
Dewpoint: 19.0°C ( 66°F) [RH = 52%]
Pressure (altimeter):30.05 inches Hg (1017.7 mb)
Winds:from the ENE (70 degrees) at 20 MPH (17 knots; 8.7 m/s) gusting to 23 MPH (20 knots; 10.3 m/s)
Visibility:10 or more sm (16+ km)
Ceiling:at least 12,000 feet AGL
Clouds:sky clear below 12,000 feet AGL